createdAt,value
2018-06-02T00:01:52.538Z,95.60
2018-06-02T00:04:20.727Z,96.50
2018-06-02T00:06:48.899Z,97.00
2018-06-02T00:09:17.095Z,96.70
2018-06-02T00:11:46.040Z,96.10
2018-06-02T00:14:14.234Z,96.10
2018-06-02T00:16:42.420Z,96.00
2018-06-02T00:19:10.616Z,95.90
2018-06-02T00:21:38.794Z,96.20
2018-06-02T00:24:07.002Z,96.40
2018-06-02T00:26:35.175Z,96.30
2018-06-02T00:29:03.378Z,96.60
2018-06-02T00:31:33.160Z,96.60
2018-06-02T00:34:01.355Z,96.60
2018-06-02T00:36:29.500Z,96.40
2018-06-02T00:38:57.643Z,96.50
2018-06-02T00:41:25.811Z,96.60
2018-06-02T00:43:54.047Z,96.90
2018-06-02T00:46:22.209Z,97.80
2018-06-02T00:48:50.355Z,98.00
2018-06-02T00:51:19.280Z,98.70
2018-06-02T00:53:47.434Z,98.60
2018-06-02T00:56:15.607Z,98.10
2018-06-02T00:58:43.755Z,97.80
2018-06-02T01:01:12.707Z,97.10
2018-06-02T01:03:40.848Z,97.10
2018-06-02T01:06:09.014Z,97.10
2018-06-02T01:08:37.168Z,97.40
2018-06-02T01:11:06.199Z,97.00
2018-06-02T01:13:34.348Z,97.00
2018-06-02T01:16:02.523Z,97.00
2018-06-02T01:18:30.715Z,97.30
2018-06-02T01:20:59.096Z,96.80
2018-06-02T01:23:27.263Z,96.40
2018-06-02T01:25:55.538Z,96.10
2018-06-02T01:28:23.687Z,96.20
2018-06-02T01:30:53.523Z,97.70
2018-06-02T01:33:21.674Z,97.30
2018-06-02T01:35:49.870Z,97.50
2018-06-02T01:38:18.019Z,97.10
2018-06-02T01:40:46.186Z,97.00
2018-06-02T01:43:14.387Z,97.00
2018-06-02T01:45:42.668Z,97.10
2018-06-02T01:48:10.811Z,97.60
2018-06-02T01:50:39.023Z,97.10
2018-06-02T01:53:07.188Z,97.20
2018-06-02T01:55:35.331Z,97.80
2018-06-02T01:58:03.507Z,98.00
2018-06-02T02:00:32.475Z,98.60
2018-06-02T02:03:00.691Z,98.60
2018-06-02T02:05:28.847Z,97.80
2018-06-02T02:07:57.040Z,97.60
2018-06-02T02:10:25.214Z,97.30
2018-06-02T02:12:53.382Z,96.20
2018-06-02T02:15:21.563Z,97.20
2018-06-02T02:17:49.832Z,97.70
2018-06-02T02:20:18.007Z,97.60
2018-06-02T02:22:46.274Z,96.90
2018-06-02T02:25:14.422Z,96.40
2018-06-02T02:27:42.599Z,96.90
2018-06-02T02:30:11.776Z,97.50
2018-06-02T02:32:39.987Z,97.50
2018-06-02T02:35:08.159Z,97.70
2018-06-02T02:37:36.439Z,97.40
2018-06-02T02:40:06.223Z,98.00
2018-06-02T02:42:34.395Z,98.00
2018-06-02T02:45:02.599Z,97.80
2018-06-02T02:47:30.872Z,98.00
2018-06-02T02:49:59.021Z,98.40
2018-06-02T02:52:27.187Z,98.60
2018-06-02T02:54:55.336Z,98.70
2018-06-02T02:57:24.275Z,98.20
2018-06-02T02:59:52.456Z,98.20
2018-06-02T03:02:20.631Z,98.30
2018-06-02T03:04:50.296Z,98.30
2018-06-02T03:07:18.511Z,98.30
2018-06-02T03:09:46.683Z,98.90
2018-06-02T03:12:14.947Z,99.00
2018-06-02T03:14:43.095Z,98.30
2018-06-02T03:17:11.238Z,98.30
2018-06-02T03:19:40.283Z,97.20
2018-06-02T03:22:08.424Z,97.20
2018-06-02T03:24:36.632Z,97.20
2018-06-02T03:27:04.779Z,97.70
2018-06-02T03:29:32.999Z,97.20
2018-06-02T03:32:01.252Z,97.90
2018-06-02T03:34:29.522Z,98.30
2018-06-02T03:36:57.664Z,98.30
2018-06-02T03:39:26.671Z,99.00
2018-06-02T03:41:54.857Z,99.00
2018-06-02T03:44:23.023Z,99.00
2018-06-02T03:46:51.211Z,98.90
2018-06-02T03:49:19.377Z,98.90
2018-06-02T03:51:47.571Z,97.30
2018-06-02T03:54:15.704Z,98.00
2018-06-02T03:56:43.854Z,99.00
2018-06-02T03:59:12.098Z,99.30
2018-06-02T04:01:40.250Z,99.30
2018-06-02T04:04:08.410Z,98.70
2018-06-02T04:06:36.563Z,98.40
2018-06-02T04:09:06.291Z,98.40
2018-06-02T04:11:34.467Z,98.40
2018-06-02T04:14:02.744Z,98.90
2018-06-02T04:16:30.899Z,98.70
2018-06-02T04:18:59.089Z,98.80
2018-06-02T04:21:27.240Z,99.10
2018-06-02T04:23:55.436Z,98.80
2018-06-02T04:26:23.716Z,98.80
2018-06-02T04:28:52.000Z,98.80
2018-06-02T04:31:20.134Z,98.80
2018-06-02T04:33:48.307Z,98.80
2018-06-02T04:36:16.450Z,98.70
2018-06-02T04:38:45.358Z,99.30
2018-06-02T04:43:47.891Z,98.70
2018-06-02T04:46:16.069Z,98.60
2018-06-02T04:48:44.322Z,98.80
2018-06-02T04:51:12.498Z,99.40
2018-06-02T04:53:40.671Z,99.30
2018-06-02T04:56:08.844Z,98.90
2018-06-02T04:58:36.991Z,98.70
2018-06-02T05:01:05.187Z,98.80
2018-06-02T05:03:33.341Z,98.90
2018-06-02T05:06:01.507Z,99.60
2018-06-02T05:08:29.686Z,98.90
2018-06-02T05:10:57.879Z,98.70
2018-06-02T05:13:26.055Z,99.00
2018-06-02T05:15:54.330Z,98.90
2018-06-02T05:18:24.110Z,98.80
2018-06-02T05:20:52.270Z,98.80
2018-06-02T05:23:21.186Z,99.80
2018-06-02T05:25:49.354Z,99.80
2018-06-02T05:28:17.499Z,99.90
2018-06-02T05:30:46.435Z,99.90
2018-06-02T05:33:14.610Z,99.90
2018-06-02T05:35:42.770Z,99.90
2018-06-02T05:38:11.779Z,99.20
2018-06-02T05:40:39.952Z,99.20
2018-06-02T05:43:08.124Z,99.70
2018-06-02T05:45:36.399Z,99.90
2018-06-02T05:48:04.579Z,99.70
2018-06-02T05:50:32.753Z,99.70
2018-06-02T05:53:00.910Z,99.20
2018-06-02T05:55:29.194Z,98.70
2018-06-02T05:57:57.364Z,98.50
2018-06-02T06:00:25.531Z,98.40
2018-06-02T06:02:53.714Z,98.40
2018-06-02T06:05:21.880Z,97.70
2018-06-02T06:07:50.056Z,97.70
2018-06-02T06:10:18.327Z,97.40
2018-06-02T06:12:46.515Z,96.70
2018-06-02T06:15:14.654Z,96.20
2018-06-02T06:17:42.874Z,96.30
2018-06-02T06:20:11.019Z,96.90
2018-06-02T06:22:39.188Z,96.80
2018-06-02T06:25:07.359Z,96.10
2018-06-02T06:27:35.619Z,96.00
2018-06-02T06:30:03.807Z,95.70
2018-06-02T06:32:31.970Z,95.30
2018-06-02T06:35:00.113Z,95.50
2018-06-02T06:37:28.292Z,95.20
2018-06-02T06:39:56.499Z,96.00
2018-06-02T06:42:25.089Z,94.80
2018-06-02T06:44:53.569Z,93.90
2018-06-02T06:47:23.073Z,94.40
2018-06-02T06:49:51.655Z,94.40
2018-06-02T06:52:20.023Z,93.90
2018-06-02T06:54:48.194Z,94.30
2018-06-02T06:57:16.363Z,93.30
2018-06-02T06:59:44.544Z,93.90
2018-06-02T07:02:12.720Z,93.10
2018-06-02T07:04:40.887Z,92.10
2018-06-02T07:07:09.059Z,92.70
2018-06-02T07:09:37.210Z,92.60
2018-06-02T07:12:05.584Z,91.60
2018-06-02T07:14:33.784Z,91.60
2018-06-02T07:17:02.763Z,92.20
2018-06-02T07:19:30.908Z,92.20
2018-06-02T07:21:59.835Z,90.00
2018-06-02T07:24:28.111Z,90.00
2018-06-02T07:26:56.392Z,90.00
2018-06-02T07:29:24.658Z,89.70
2018-06-02T07:31:52.805Z,89.90
2018-06-02T07:34:21.015Z,89.00
2018-06-02T07:36:49.183Z,87.90
2018-06-02T07:39:17.351Z,88.70
2018-06-02T07:41:45.490Z,87.60
2018-06-02T07:44:13.698Z,88.00
2018-06-02T07:46:41.875Z,88.30
2018-06-02T07:49:10.059Z,88.50
2018-06-02T07:51:38.199Z,88.10
2018-06-02T07:54:06.396Z,87.20
2018-06-02T07:56:34.546Z,85.30
2018-06-02T07:59:02.704Z,85.20
2018-06-02T08:01:30.899Z,86.10
2018-06-02T08:03:59.060Z,85.80
2018-06-02T08:06:27.243Z,85.50
2018-06-02T08:08:55.415Z,83.20
2018-06-02T08:11:23.591Z,81.90
2018-06-02T08:13:51.862Z,82.40
2018-06-02T08:16:20.242Z,80.70
2018-06-02T08:18:48.401Z,79.90
2018-06-02T08:21:16.541Z,81.40
2018-06-02T08:23:45.580Z,80.70
2018-06-02T08:26:13.751Z,80.70
2018-06-02T08:28:41.915Z,75.70
2018-06-02T08:31:10.092Z,78.70
2018-06-02T08:33:39.129Z,76.70
2018-06-02T08:36:07.247Z,74.30
2018-06-02T08:38:35.413Z,73.60
2018-06-02T08:41:03.555Z,73.80
2018-06-02T08:43:32.484Z,71.90
2018-06-02T08:46:00.835Z,71.90
2018-06-02T08:48:29.869Z,70.20
2018-06-02T08:50:58.015Z,70.10
2018-06-02T08:53:26.159Z,72.40
2018-06-02T08:55:54.481Z,69.90
2018-06-02T08:58:22.623Z,70.50
2018-06-02T09:00:51.191Z,70.90
2018-06-02T09:03:20.098Z,69.20
2018-06-02T09:05:48.403Z,69.00
2018-06-02T09:08:16.538Z,68.20
2018-06-02T09:10:44.699Z,69.90
2018-06-02T09:13:13.611Z,65.70
2018-06-02T09:15:41.823Z,65.60
2018-06-02T09:18:10.089Z,67.50
2018-06-02T09:20:38.259Z,65.60
2018-06-02T09:23:06.422Z,63.60
2018-06-02T09:25:34.807Z,65.80
2018-06-02T09:28:02.944Z,64.80
2018-06-02T09:30:31.147Z,63.10
2018-06-02T09:32:59.289Z,64.40
2018-06-02T09:35:27.531Z,62.80
2018-06-02T09:37:55.772Z,63.50
2018-06-02T09:40:23.934Z,63.00
2018-06-02T09:42:52.074Z,61.20
2018-06-02T09:45:21.114Z,60.70
2018-06-02T09:47:49.385Z,60.70
2018-06-02T09:50:17.575Z,60.50
2018-06-02T09:52:45.736Z,57.70
2018-06-02T09:55:14.006Z,59.10
2018-06-02T09:57:42.225Z,59.50
2018-06-02T10:00:10.333Z,59.20
2018-06-02T10:02:38.513Z,58.90
2018-06-02T10:05:06.892Z,60.60
2018-06-02T10:07:35.185Z,59.00
2018-06-02T10:10:03.311Z,59.30
2018-06-02T10:12:31.474Z,60.60
2018-06-02T10:15:00.379Z,61.70
2018-06-02T10:17:28.549Z,61.70
2018-06-02T10:19:56.688Z,62.50
2018-06-02T10:22:24.919Z,61.10
2018-06-02T10:24:53.396Z,60.40
2018-06-02T10:27:21.572Z,59.50
2018-06-02T10:29:49.744Z,57.40
2018-06-02T10:32:17.920Z,58.70
2018-06-02T10:34:46.295Z,56.90
2018-06-02T10:37:14.462Z,56.90
2018-06-02T10:39:42.611Z,57.10
2018-06-02T10:42:10.786Z,56.50
2018-06-02T10:44:38.998Z,59.90
2018-06-02T10:47:07.132Z,60.40
2018-06-02T10:49:35.282Z,58.20
2018-06-02T10:52:04.215Z,57.50
2018-06-02T10:54:33.182Z,60.00
2018-06-02T10:57:01.359Z,60.00
2018-06-02T10:59:29.506Z,56.40
2018-06-02T11:01:58.444Z,58.20
2018-06-02T11:04:27.472Z,56.90
2018-06-02T11:06:55.707Z,56.80
2018-06-02T11:09:23.884Z,55.30
2018-06-02T11:11:52.159Z,55.70
2018-06-02T11:14:20.331Z,56.00
2018-06-02T11:16:48.498Z,54.80
2018-06-02T11:19:16.634Z,52.60
2018-06-02T11:21:45.662Z,58.60
2018-06-02T11:24:13.824Z,58.70
2018-06-02T11:26:42.007Z,53.40
2018-06-02T11:29:10.282Z,55.00
2018-06-02T11:31:38.432Z,54.60
2018-06-02T11:34:06.632Z,54.90
2018-06-02T11:36:34.806Z,55.30
2018-06-02T11:39:02.963Z,54.70
2018-06-02T11:41:31.102Z,51.70
2018-06-02T11:44:00.142Z,54.50
2018-06-02T11:46:28.312Z,54.60
2018-06-02T11:48:56.470Z,50.80
2018-06-02T11:51:24.613Z,52.00
2018-06-02T11:53:53.649Z,49.40
2018-06-02T11:56:21.789Z,49.50
2018-06-02T11:58:50.099Z,51.50
2018-06-02T12:01:18.274Z,50.90
2018-06-02T12:03:46.468Z,50.30
2018-06-02T12:06:14.829Z,50.80
2018-06-02T12:08:43.095Z,50.70
2018-06-02T12:11:11.238Z,49.60
2018-06-02T12:13:39.535Z,50.60
2018-06-02T12:16:07.679Z,49.70
2018-06-02T12:18:35.880Z,50.50
2018-06-02T12:21:04.026Z,51.70
2018-06-02T12:23:32.187Z,50.60
2018-06-02T12:26:01.094Z,50.70
2018-06-02T12:28:29.322Z,50.70
2018-06-02T12:30:57.410Z,51.20
2018-06-02T12:33:25.659Z,49.60
2018-06-02T12:35:53.802Z,51.20
2018-06-02T12:38:21.979Z,49.30
2018-06-02T12:40:50.555Z,51.60
2018-06-02T12:43:18.753Z,50.50
2018-06-02T12:45:46.920Z,49.30
2018-06-02T12:48:15.058Z,52.80
2018-06-02T12:50:43.255Z,52.70
2018-06-02T12:53:11.418Z,53.40
2018-06-02T12:55:39.807Z,54.20
2018-06-02T12:58:08.170Z,51.90
2018-06-02T13:00:36.338Z,50.80
2018-06-02T13:03:04.524Z,50.60
2018-06-02T13:05:32.687Z,50.70
2018-06-02T13:08:00.865Z,51.10
2018-06-02T13:10:29.031Z,52.00
2018-06-02T13:12:57.207Z,50.80
2018-06-02T13:15:25.383Z,48.70
2018-06-02T13:17:53.518Z,48.10
2018-06-02T13:20:22.442Z,47.40
2018-06-02T13:22:50.622Z,47.40
2018-06-02T13:25:18.775Z,47.30
2018-06-02T13:27:46.918Z,48.30
2018-06-02T13:30:15.966Z,48.00
2018-06-02T13:32:44.295Z,47.90
2018-06-02T13:35:12.511Z,49.70
2018-06-02T13:37:40.676Z,47.70
2018-06-02T13:40:08.835Z,48.80
2018-06-02T13:42:37.018Z,47.30
2018-06-02T13:45:05.291Z,48.00
2018-06-02T13:47:34.187Z,49.00
2018-06-02T13:50:02.568Z,46.80
2018-06-02T13:52:30.699Z,48.00
2018-06-02T13:54:59.623Z,48.60
2018-06-02T13:57:27.790Z,48.60
2018-06-02T13:59:55.967Z,48.70
2018-06-02T14:02:24.348Z,48.90
2018-06-02T14:04:52.598Z,51.20
2018-06-02T14:07:20.791Z,50.00
2018-06-02T14:09:48.984Z,49.00
2018-06-02T14:12:18.774Z,49.20
2018-06-02T14:14:46.917Z,49.10
2018-06-02T14:17:15.126Z,51.00
2018-06-02T14:19:43.263Z,52.20
2018-06-02T14:22:11.434Z,50.90
2018-06-02T14:24:39.590Z,51.90
2018-06-02T14:27:08.510Z,49.40
2018-06-02T14:29:36.699Z,49.40
2018-06-02T14:32:04.970Z,48.30
2018-06-02T14:34:33.107Z,51.00
2018-06-02T14:37:02.040Z,50.50
2018-06-02T14:39:30.176Z,50.50
2018-06-02T14:41:58.506Z,49.80
2018-06-02T14:44:28.187Z,50.10
2018-06-02T14:46:56.351Z,50.20
2018-06-02T14:49:24.540Z,50.20
2018-06-02T14:51:52.731Z,51.20
2018-06-02T14:54:20.979Z,52.10
2018-06-02T14:56:49.254Z,52.20
2018-06-02T14:59:17.395Z,53.60
2018-06-02T15:01:45.559Z,51.80
2018-06-02T15:04:14.471Z,50.20
2018-06-02T15:06:42.663Z,50.70
2018-06-02T15:09:10.799Z,49.90
2018-06-02T15:11:39.027Z,51.00
2018-06-02T15:14:07.170Z,50.90
2018-06-02T15:16:35.355Z,53.90
2018-06-02T15:19:03.491Z,52.00
2018-06-02T15:21:33.335Z,53.30
2018-06-02T15:24:01.512Z,53.20
2018-06-02T15:26:29.667Z,54.90
2018-06-02T15:28:57.818Z,56.20
2018-06-02T15:31:26.058Z,54.80
2018-06-02T15:33:54.200Z,54.30
2018-06-02T15:36:22.371Z,54.30
2018-06-02T15:38:50.761Z,54.10
2018-06-02T15:41:19.019Z,54.20
2018-06-02T15:43:47.191Z,54.60
2018-06-02T15:46:15.336Z,55.30
2018-06-02T15:48:43.501Z,54.30
2018-06-02T15:51:11.711Z,56.00
2018-06-02T15:53:39.993Z,56.60
2018-06-02T15:56:08.139Z,55.20
2018-06-02T15:58:36.339Z,56.20
2018-06-02T16:01:04.480Z,55.20
2018-06-02T16:03:32.735Z,54.50
2018-06-02T16:06:00.825Z,55.80
2018-06-02T16:08:28.979Z,54.40
2018-06-02T16:10:57.394Z,53.50
2018-06-02T16:13:25.567Z,56.50
2018-06-02T16:15:53.747Z,53.30
2018-06-02T16:18:21.923Z,56.50
2018-06-02T16:20:50.097Z,57.00
2018-06-02T16:23:18.250Z,55.50
2018-06-02T16:25:46.414Z,54.70
2018-06-02T16:28:14.580Z,57.10
2018-06-02T16:30:42.784Z,55.50
2018-06-02T16:33:10.956Z,55.20
2018-06-02T16:35:39.091Z,55.10
2018-06-02T16:38:07.231Z,56.80
2018-06-02T16:40:35.393Z,55.90
2018-06-02T16:43:03.647Z,51.30
2018-06-02T16:45:31.915Z,52.20
2018-06-02T16:48:00.050Z,53.20
2018-06-02T16:50:28.363Z,53.90
2018-06-02T16:52:56.543Z,54.50
2018-06-02T16:55:24.742Z,54.20
2018-06-02T16:57:52.847Z,54.20
2018-06-02T17:00:21.072Z,54.40
2018-06-02T17:02:49.328Z,55.20
2018-06-02T17:05:17.626Z,56.10
2018-06-02T17:07:45.878Z,55.20
2018-06-02T17:10:14.149Z,54.10
2018-06-02T17:12:42.303Z,53.30
2018-06-02T17:15:10.496Z,53.10
2018-06-02T17:17:38.670Z,53.70
2018-06-02T17:20:08.530Z,53.60
2018-06-02T17:22:36.659Z,53.50
2018-06-02T17:25:05.035Z,53.60
2018-06-02T17:27:33.175Z,54.40
2018-06-02T17:30:01.393Z,55.50
2018-06-02T17:32:29.648Z,54.30
2018-06-02T17:34:57.812Z,53.60
2018-06-02T17:37:26.431Z,53.00
2018-06-02T17:39:54.602Z,53.20
2018-06-02T17:42:22.743Z,56.20
2018-06-02T17:44:51.091Z,57.00
2018-06-02T17:47:19.394Z,55.90
2018-06-02T17:49:49.207Z,57.00
2018-06-02T17:52:17.360Z,57.00
2018-06-02T17:54:45.526Z,56.50
2018-06-02T17:57:13.833Z,56.00
2018-06-02T17:59:42.000Z,56.60
2018-06-02T18:02:10.168Z,57.60
2018-06-02T18:04:38.337Z,58.20
2018-06-02T18:07:06.514Z,60.90
2018-06-02T18:09:34.687Z,61.80
2018-06-02T18:12:02.861Z,62.20
2018-06-02T18:14:30.999Z,64.00
2018-06-02T18:16:59.214Z,63.50
2018-06-02T18:19:27.380Z,65.80
2018-06-02T18:21:55.537Z,65.80
2018-06-02T18:24:23.730Z,64.90
2018-06-02T18:26:51.996Z,65.90
2018-06-02T18:29:20.270Z,64.60
2018-06-02T18:31:48.435Z,66.30
2018-06-02T18:34:16.570Z,68.50
2018-06-02T18:36:45.612Z,70.70
2018-06-02T18:39:13.748Z,70.70
2018-06-02T18:41:41.918Z,68.40
2018-06-02T18:44:10.097Z,67.20
2018-06-02T18:46:39.003Z,69.10
2018-06-02T18:49:07.183Z,69.00
2018-06-02T18:51:35.458Z,69.20
2018-06-02T18:54:03.598Z,71.20
2018-06-02T18:56:31.805Z,72.70
2018-06-02T18:59:00.185Z,73.00
2018-06-02T19:01:28.361Z,73.10
2018-06-02T19:03:56.530Z,73.30
2018-06-02T19:06:24.687Z,74.00
2018-06-02T19:08:52.980Z,74.40
2018-06-02T19:11:21.256Z,75.40
2018-06-02T19:13:49.395Z,75.40
2018-06-02T19:16:17.558Z,79.20
2018-06-02T19:18:45.875Z,78.80
2018-06-02T19:21:14.045Z,79.60
2018-06-02T19:26:50.782Z,80.30
2018-06-02T19:29:19.840Z,81.90
2018-06-02T19:31:48.931Z,82.10
2018-06-02T19:34:17.987Z,83.20
2018-06-02T19:36:47.072Z,83.00
2018-06-02T19:39:16.186Z,85.30
2018-06-02T19:41:45.270Z,83.40
2018-06-02T19:44:14.343Z,84.00
2018-06-02T19:46:43.410Z,84.80
2018-06-02T19:49:12.659Z,85.40
2018-06-02T19:51:41.760Z,86.20
2018-06-02T19:54:10.790Z,86.70
2018-06-02T19:56:39.837Z,87.80
2018-06-02T19:59:08.956Z,88.40
2018-06-02T20:01:38.002Z,88.50
2018-06-02T20:04:07.114Z,88.10
2018-06-02T20:06:36.199Z,88.80
2018-06-02T20:09:05.938Z,88.40
2018-06-02T20:11:34.993Z,88.30
2018-06-02T20:14:04.274Z,87.90
2018-06-02T20:16:33.326Z,89.80
2018-06-02T20:19:02.401Z,89.50
2018-06-02T20:21:32.118Z,90.30
2018-06-02T20:24:01.175Z,90.10
2018-06-02T20:26:30.219Z,90.70
2018-06-02T20:28:59.418Z,90.70
2018-06-02T20:31:28.471Z,91.00
2018-06-02T20:33:57.550Z,90.60
2018-06-02T20:36:26.614Z,90.70
2018-06-02T20:38:55.696Z,91.10
2018-06-02T20:41:24.742Z,91.60
2018-06-02T20:43:53.876Z,91.00
2018-06-02T20:46:22.927Z,90.80
2018-06-02T20:48:52.019Z,91.20
2018-06-02T20:51:21.086Z,91.30
2018-06-02T20:53:50.159Z,91.60
2018-06-02T20:56:19.232Z,91.40
2018-06-02T20:58:48.295Z,91.70
2018-06-02T21:01:17.373Z,91.60
2018-06-02T21:03:46.463Z,91.70
2018-06-02T21:06:15.510Z,91.90
2018-06-02T21:08:44.624Z,92.00
2018-06-02T21:11:13.728Z,91.60
2018-06-02T21:13:42.946Z,91.70
2018-06-02T21:16:11.980Z,91.80
2018-06-02T21:18:41.112Z,92.00
2018-06-02T21:21:10.189Z,92.10
2018-06-02T21:23:39.345Z,91.50
2018-06-02T21:28:37.091Z,91.80
2018-06-02T21:31:06.175Z,91.40
2018-06-02T21:33:35.230Z,91.40
2018-06-02T21:36:04.314Z,91.90
2018-06-02T21:38:33.422Z,91.70
2018-06-02T21:41:02.499Z,92.20
2018-06-02T21:43:31.562Z,91.40
2018-06-02T21:46:00.641Z,91.80
2018-06-02T21:48:29.799Z,92.20
2018-06-02T21:50:58.863Z,92.10
2018-06-02T21:53:27.922Z,92.40
2018-06-02T21:55:57.026Z,92.00
2018-06-02T21:58:26.199Z,92.10
2018-06-02T22:00:55.265Z,91.80
2018-06-02T22:03:24.329Z,92.10
2018-06-02T22:05:53.428Z,92.50
2018-06-02T22:08:22.571Z,92.80
2018-06-02T22:10:51.699Z,93.40
2018-06-02T22:13:20.843Z,93.70
2018-06-02T22:15:50.012Z,93.40
2018-06-02T22:18:19.126Z,93.60
2018-06-02T22:20:48.231Z,93.00
2018-06-02T22:23:17.285Z,93.80
2018-06-02T22:25:46.359Z,94.00
2018-06-02T22:28:15.515Z,94.20
2018-06-02T22:30:44.594Z,94.10
2018-06-02T22:33:13.655Z,94.30
2018-06-02T22:35:42.745Z,94.20
2018-06-02T22:38:11.799Z,94.40
2018-06-02T22:40:40.882Z,93.80
2018-06-02T22:43:09.939Z,93.90
2018-06-02T22:45:39.023Z,94.30
2018-06-02T22:48:08.079Z,94.30
2018-06-02T22:50:37.154Z,93.90
2018-06-02T22:53:06.371Z,94.50
2018-06-02T22:55:35.532Z,94.50
2018-06-02T22:58:04.691Z,94.30
2018-06-02T23:00:33.882Z,94.30
2018-06-02T23:03:02.935Z,94.40
2018-06-02T23:05:32.034Z,94.70
2018-06-02T23:08:01.375Z,94.80
2018-06-02T23:10:30.478Z,94.50
2018-06-02T23:12:59.543Z,93.70
2018-06-02T23:15:28.622Z,94.40
2018-06-02T23:17:57.675Z,94.30
2018-06-02T23:20:26.743Z,94.60
2018-06-02T23:25:24.504Z,95.10
2018-06-02T23:27:53.557Z,94.70
2018-06-02T23:30:22.624Z,95.30
2018-06-02T23:32:51.713Z,95.00
2018-06-02T23:37:49.559Z,95.50
2018-06-02T23:40:18.595Z,95.70
2018-06-02T23:42:47.679Z,95.10
2018-06-02T23:45:16.735Z,95.30
2018-06-02T23:47:45.937Z,94.60
2018-06-02T23:50:15.000Z,95.20
2018-06-02T23:52:44.092Z,95.00
2018-06-02T23:55:13.162Z,95.30
2018-06-02T23:57:42.230Z,95.30
